To NAV CANADA Home Page Login to a new session Search on AWWS site Feedback and Comments Disclaimer Vers la page française équivalente Tips FAQ What's new on the site To the Forecasts and Observations / NOTAM section To "File a Flight Plan" website Publications and other links Update of the User's profile FIC Telephone Numbers My Weather Data Folder Route Weather Data Regional Weather Data Local Weather Data To the Forecasts and Observations / NOTAM section
Request Generated 03/28/2017 at 02:26:04 UTC . Weather information available at that time is displayed.

METAR/TAF

GREENWOOD/NS    

METAR CYZX 280200Z 06010KT 1SM -FZRA SCT008 OVC024 M01/M03 A3019 RMK SF3SC5 /S01/ WNDY HILL UNAVBL SLP226=
METAR CYZX 280100Z 07010KT 1SM -FZRA SCT008 OVC024 M01/M02 A3022 RMK SF3SC5 /S01/ WNDY HILL UNAVBL SLP235=
METAR CYZX 280000Z 07008KT 1SM -SN SCT006 OVC016 M01/M03 A3024 RMK SF3SC5 /S05/ WNDY HILL UNAVBL SLP243=

TAF AMD CYZX 280111Z 2801/2824 09010KT 1SM -FZRA BR OVC008 TEMPO
2801/2806 6SM -SN SCT008 OVC015
FM280600 09008KT 4SM -FZRA BR OVC012 TEMPO 2806/2808 2SM -FZDZ BR
OVC008
FM280800 08008KT 2SM -FZDZ BR OVC008 TEMPO 2808/2814 P6SM NSW
OVC012
FM281400 08005KT P6SM OVC010 TEMPO 2814/2824 OVC020
RMK NXT FCST BY 280600Z=
Your time UTC time
Weather data provided by Environment Canada and NAV CANADA